Time;durP1;ratioP1;P1;durP2;ratioP2;P2;SDS_P1;SDS_P2;PMS_P1;PMS_P2;Temp;Humidity;BMP_temperature;BMP_pressure;BME280_temperature;BME280_humidity;BME280_pressure;Samples;Min_cycle;Max_cycle;Signal;HPM_P1;HPM_P2
2021/01/08 00:01:41;;;;;;;57.28;35.70;;;0.20;99.90;;;-0.31;83.48;101508.44;4120189;28;20510;-73
2021/01/08 00:03:42;;;;;;;66.05;35.33;;;0.20;99.90;;;-0.34;84.33;101506.81;4104058;28;20060;-73
2021/01/08 00:05:43;;;;;;;59.95;36.03;;;0.30;99.90;;;-0.20;84.00;101507.03;4121006;28;20039;-73
2021/01/08 00:07:44;;;;;;;66.38;36.45;;;0.90;99.90;;;-0.18;84.86;101499.22;4118921;28;20023;-73
2021/01/08 00:09:44;;;;;;;62.95;37.38;;;0.20;99.90;;;-0.06;84.66;101503.84;4087976;29;20032;-73
2021/01/08 00:11:46;;;;;;;58.13;35.92;;;0.30;99.90;;;-0.05;84.74;101501.16;4121058;28;20494;-73
2021/01/08 00:13:47;;;;;;;59.72;36.40;;;1.40;99.90;;;-0.16;84.63;101487.84;4103583;28;20023;-73
2021/01/08 00:15:48;;;;;;;60.05;36.63;;;0.40;99.90;;;-0.11;83.98;101495.41;4119801;28;20035;-73
2021/01/08 00:17:49;;;;;;;62.00;37.70;;;0.30;99.90;;;-0.14;83.50;101480.84;4104032;28;20031;-73
2021/01/08 00:19:50;;;;;;;62.72;35.28;;;0.30;99.90;;;0.02;83.45;101495.69;4121166;28;20035;-73
2021/01/08 00:21:51;;;;;;;60.60;35.72;;;0.30;99.90;;;0.18;83.51;101486.31;4121002;28;20042;-73
2021/01/08 00:23:52;;;;;;;63.28;35.30;;;0.50;99.90;;;0.31;83.32;101482.19;4120859;28;20023;-73
2021/01/08 00:25:52;;;;;;;59.90;36.17;;;0.50;99.90;;;0.44;83.58;101480.72;4121227;28;20050;-73
2021/01/08 00:27:53;;;;;;;62.30;37.30;;;0.60;99.90;;;0.48;83.23;101479.63;4120687;28;20027;-73
2021/01/08 00:29:54;;;;;;;60.65;34.67;;;1.00;99.90;;;0.36;83.03;101475.88;4127888;28;20030;-73
2021/01/08 00:31:55;;;;;;;60.05;35.60;;;0.70;99.90;;;0.30;83.39;101490.91;4123914;28;20027;-73
2021/01/08 00:33:56;;;;;;;59.85;34.83;;;0.70;99.90;;;0.14;83.63;101469.19;4121102;28;20030;-73
2021/01/08 00:35:57;;;;;;;62.78;36.28;;;0.60;99.90;;;0.03;84.17;101476.63;4121070;28;20027;-73
2021/01/08 00:37:57;;;;;;;57.42;34.13;;;0.60;99.90;;;0.10;84.04;101481.47;4110650;28;20055;-73
2021/01/08 00:39:58;;;;;;;60.38;35.47;;;0.50;99.90;;;0.22;82.51;101487.81;4117544;28;20031;-73
2021/01/08 00:42:01;;;;;;;57.80;32.72;;;0.50;99.90;;;0.17;82.55;101489.78;4122558;28;20414;-73
2021/01/08 00:44:03;;;;;;;60.90;33.45;;;0.50;99.90;;;0.08;82.29;101485.03;4120403;28;20078;-73
2021/01/08 00:46:04;;;;;;;56.92;33.35;;;0.50;99.90;;;0.06;82.09;101486.88;4119745;28;20069;-73
2021/01/08 00:48:06;;;;;;;58.42;33.47;;;0.50;99.90;;;-0.01;81.86;101487.16;4120788;28;20031;-73
2021/01/08 00:50:08;;;;;;;56.30;33.10;;;0.50;99.90;;;-0.10;82.46;101492.75;4103611;29;20543;-73
2021/01/08 00:52:09;;;;;;;55.85;33.78;;;0.40;99.90;;;0.06;81.85;101481.69;4119557;28;20065;-73
2021/01/08 00:54:11;;;;;;;63.00;35.17;;;0.50;99.90;;;0.09;81.81;101497.91;4103509;29;20031;-73
2021/01/08 00:56:21;;;;;;;64.00;35.33;;;0.40;99.90;;;-0.15;82.10;101491.28;4120499;28;20030;-73
2021/01/08 00:58:26;;;;;;;60.80;34.15;;;0.30;99.90;;;-0.03;81.57;101483.78;4119225;28;20030;-73
2021/01/08 01:00:27;;;;;;;;;;;0.40;99.90;;;-0.08;81.02;101490.09;4103776;29;20035;-73
2021/01/08 01:02:28;;;;;;;65.07;36.08;;;0.30;99.90;;;-0.18;80.99;101488.84;4103333;29;19910;-73
2021/01/08 01:04:28;;;;;;;59.55;34.92;;;0.30;99.90;;;-0.25;80.79;101482.25;4103226;29;20035;-73
2021/01/08 01:06:34;;;;;;;63.50;35.03;;;0.20;99.90;;;-0.24;80.89;101484.75;4119429;28;20023;-73
2021/01/08 01:08:35;;;;;;;57.55;35.78;;;0.20;99.90;;;-0.29;81.43;101484.13;4119365;28;20094;-73
2021/01/08 01:10:36;;;;;;;62.47;36.03;;;0.10;99.90;;;-0.42;82.01;101483.00;4119247;28;20033;-73
2021/01/08 01:12:37;;;;;;;65.70;36.90;;;0.10;99.90;;;-0.37;81.64;101478.44;4120205;28;20030;-73
2021/01/08 01:14:37;;;;;;;58.35;34.97;;;0.10;99.90;;;-0.42;82.48;101480.41;4119072;28;20019;-73
2021/01/08 01:16:38;;;;;;;56.83;33.40;;;0.10;99.90;;;-0.49;83.45;101471.22;4120285;28;20367;-73
2021/01/08 01:18:41;;;;;;;63.30;37.13;;;0.00;99.90;;;-0.47;83.96;101466.81;4102824;28;20027;-73
2021/01/08 01:20:42;;;;;;;64.35;35.95;;;0.00;99.90;;;-0.31;83.52;101478.19;4119344;28;20031;-73
2021/01/08 01:22:43;;;;;;;58.25;34.92;;;0.10;99.90;;;-0.32;84.27;101468.72;4119137;28;20031;-73
2021/01/08 01:24:44;;;;;;;57.35;34.28;;;0.10;99.90;;;-0.36;84.73;101467.16;4103109;29;20106;-73
2021/01/08 01:26:45;;;;;;;54.97;33.60;;;0.10;99.90;;;-0.28;85.11;101472.84;4118966;28;20030;-73
2021/01/08 01:28:46;;;;;;;58.95;34.70;;;0.10;99.90;;;-0.20;84.90;101475.94;4118866;28;20098;-73
2021/01/08 01:30:47;;;;;;;60.80;34.08;;;0.20;99.90;;;-0.11;84.37;101461.69;4130000;28;20031;-73
2021/01/08 01:32:48;;;;;;;56.13;31.95;;;0.20;99.90;;;-0.06;84.01;101463.16;4103038;29;20031;-73
2021/01/08 01:34:48;;;;;;;58.10;33.28;;;0.30;99.90;;;-0.08;84.48;101471.94;4118959;28;20522;-73
2021/01/08 01:36:49;;;;;;;63.17;33.90;;;0.90;99.90;;;-0.12;84.72;101466.03;4120182;28;20030;-73
2021/01/08 01:38:50;;;;;;;56.50;32.47;;;0.30;99.90;;;-0.07;83.90;101476.22;4107433;28;20027;-73
2021/01/08 01:40:51;;;;;;;54.15;33.35;;;0.40;99.90;;;-0.10;83.90;101472.03;4119965;28;20046;-73
2021/01/08 01:42:52;;;;;;;58.70;34.97;;;0.30;99.90;;;-0.25;83.85;101451.13;4119776;28;20027;-73
2021/01/08 01:44:53;;;;;;;58.63;34.03;;;0.30;99.90;;;-0.23;83.99;101470.03;4119763;28;20070;-73
2021/01/08 01:46:54;;;;;;;53.58;32.20;;;0.20;99.90;;;-0.10;82.87;101471.16;4118765;28;20399;-73
2021/01/08 01:48:55;;;;;;;57.15;34.45;;;0.30;99.90;;;-0.19;83.27;101472.44;4119999;28;20035;-73
2021/01/08 01:50:56;;;;;;;58.13;34.47;;;0.30;99.90;;;-0.16;82.73;101459.34;4118690;28;20038;-73
2021/01/08 01:52:57;;;;;;;54.45;33.15;;;0.20;99.90;;;-0.19;82.88;101464.66;4119824;28;20137;-73
2021/01/08 01:54:57;;;;;;;61.08;33.97;;;0.20;99.90;;;-0.13;82.69;101461.78;4118727;28;20025;-73
2021/01/08 01:56:58;;;;;;;56.78;32.15;;;0.30;99.90;;;-0.01;82.00;101461.22;4102662;29;20027;-73
2021/01/08 01:58:59;;;;;;;63.10;35.63;;;0.30;99.90;;;-0.12;83.03;101457.44;4102327;29;20094;-73
2021/01/08 02:01:00;;;;;;;67.13;40.28;;;0.30;99.90;;;-0.22;83.01;101464.81;4102556;29;20028;-73
2021/01/08 02:03:10;;;;;;;62.80;35.55;;;0.30;99.90;;;0.13;82.59;101463.16;4102709;29;20023;-73
2021/01/08 02:05:16;;;;;;;58.03;34.85;;;0.40;99.90;;;0.25;82.24;101465.16;4119821;28;20031;-73
2021/01/08 02:07:18;;;;;;;60.65;34.53;;;0.40;99.90;;;0.10;81.49;101457.25;4118611;28;20494;-73
2021/01/08 02:09:21;;;;;;;60.67;33.47;;;0.40;99.90;;;-0.06;82.16;101478.72;4119567;28;20490;-73
2021/01/08 02:11:27;;;;;;;56.85;34.10;;;0.60;99.90;;;-0.14;81.13;101454.06;4102513;29;20023;-73
2021/01/08 02:13:58;;;;;;;60.72;33.95;;;0.30;99.90;;;-0.08;81.78;101488.34;4118221;28;20018;-72
2021/01/08 02:16:00;;;;;;;64.22;37.30;;;0.30;99.90;;;-0.26;81.46;101478.81;4106339;28;20482;-73
2021/01/08 02:18:03;;;;;;;63.08;36.35;;;0.40;99.90;;;-0.35;80.20;101481.81;4118507;28;20394;-73
2021/01/08 02:20:06;;;;;;;57.67;33.40;;;0.40;99.90;;;-0.26;79.90;101486.56;4119483;28;20039;-73
2021/01/08 02:22:22;;;;;;;60.25;34.85;;;0.40;99.90;;;-0.27;82.88;101500.44;4118306;28;20061;-73
2021/01/08 02:24:44;;;;;;;56.35;33.00;;;0.30;99.90;;;-0.40;82.55;101498.47;4119753;28;20430;-72
2021/01/08 02:26:46;;;;;;;51.60;31.20;;;0.20;99.90;;;-0.48;81.51;101488.47;4118549;28;20037;-73
2021/01/08 02:28:48;;;;;;;59.60;32.42;;;0.20;99.90;;;-0.27;80.47;101495.25;4118209;28;20504;-73
2021/01/08 02:30:51;;;;;;;58.20;34.25;;;0.20;99.90;;;-0.36;80.48;101492.25;4131802;28;20050;-73
2021/01/08 02:32:53;;;;;;;50.10;30.35;;;0.10;99.90;;;-0.67;81.61;101491.00;4121740;28;20059;-73
2021/01/08 02:34:54;;;;;;;53.92;31.98;;;0.00;99.90;;;-0.52;81.83;101489.50;4121684;28;20106;-73
2021/01/08 02:36:56;;;;;;;56.42;31.83;;;0.00;99.90;;;-0.39;79.99;101488.06;4104697;29;20039;-73
2021/01/08 02:38:58;;;;;;;50.75;31.45;;;0.00;99.90;;;-0.44;80.73;101495.16;4110651;28;20430;-73
2021/01/08 02:41:01;;;;;;;52.55;31.70;;;0.00;99.90;;;-0.65;81.34;101484.00;4105662;29;20038;-73
2021/01/08 02:43:04;;;;;;;55.15;31.90;;;-0.10;99.90;;;-0.54;81.13;101500.84;4121124;28;20529;-73
2021/01/08 02:45:06;;;;;;;51.53;31.90;;;-0.10;99.90;;;-0.75;81.63;101487.91;4121411;28;20031;-73
2021/01/08 02:47:07;;;;;;;52.35;31.02;;;-0.20;99.90;;;-0.82;82.28;101496.00;4121599;28;20037;-73
2021/01/08 02:49:08;;;;;;;55.33;32.13;;;-0.20;99.90;;;-0.74;81.92;101493.91;4121214;28;20066;-73
2021/01/08 02:51:10;;;;;;;52.42;32.85;;;-0.30;99.90;;;-0.62;80.84;101493.38;4105346;29;20030;-73
2021/01/08 02:53:15;;;;;;;51.30;31.23;;;-0.30;99.90;;;-0.67;80.98;101488.41;4122472;28;20371;-73
2021/01/08 02:55:23;;;;;;;52.83;31.67;;;-0.30;99.90;;;-0.72;80.56;101486.94;4121508;28;20026;-73
2021/01/08 02:57:26;;;;;;;50.08;28.55;;;-0.30;99.90;;;-0.80;81.20;101494.16;4121427;28;20027;-73
2021/01/08 02:59:28;;;;;;;51.55;30.63;;;-0.30;99.90;;;-0.99;81.71;101482.94;4120913;28;20030;-73
2021/01/08 03:01:31;;;;;;;50.42;32.35;;;-0.40;99.90;;;-0.98;82.42;101494.94;4122537;28;20035;-73
2021/01/08 03:03:32;;;;;;;53.00;30.77;;;-0.40;99.90;;;-1.03;82.68;101483.94;4122389;28;20494;-73
2021/01/08 03:05:34;;;;;;;53.90;33.15;;;-0.40;99.90;;;-0.81;81.50;101492.50;4121163;28;20031;-73
2021/01/08 03:07:35;;;;;;;53.42;31.42;;;-0.40;99.90;;;-0.72;80.28;101492.13;4089096;29;20040;-74
2021/01/08 03:09:36;;;;;;;55.33;31.55;;;0.50;99.90;;;-0.74;80.48;101488.72;4121085;28;20027;-73
2021/01/08 03:11:38;;;;;;;53.55;29.65;;;-0.40;99.90;;;-0.74;80.57;101488.72;4105188;29;20075;-73
2021/01/08 03:13:39;;;;;;;53.20;31.08;;;-0.40;99.90;;;-0.73;80.55;101486.09;4104753;29;20425;-73
2021/01/08 03:15:40;;;;;;;53.33;32.45;;;-0.40;99.90;;;-0.69;80.47;101490.22;4088900;29;20115;-73
2021/01/08 03:17:41;;;;;;;54.70;31.42;;;-0.30;99.90;;;-0.70;79.63;101485.09;4122292;28;20077;-73
2021/01/08 03:19:42;;;;;;;55.45;33.78;;;-0.40;99.90;;;-0.90;80.41;101482.53;4122223;28;20033;-73
2021/01/08 03:21:43;;;;;;;52.28;32.00;;;-0.30;99.90;;;-0.87;80.59;101488.44;4104996;29;20031;-73
2021/01/08 03:23:44;;;;;;;58.72;32.95;;;-0.40;99.90;;;-0.91;80.47;101476.50;4104917;29;20035;-73
2021/01/08 03:25:45;;;;;;;51.30;33.08;;;-0.40;99.90;;;-1.00;81.14;101484.69;4104993;28;20023;-75
2021/01/08 03:27:46;;;;;;;55.13;31.13;;;-0.40;99.90;;;-0.85;80.10;101485.75;4121840;28;20054;-73
2021/01/08 03:29:47;;;;;;;48.70;31.70;;;-0.40;99.90;;;-0.81;79.62;101489.91;4128031;28;20099;-72
2021/01/08 03:31:48;;;;;;;52.08;33.03;;;-0.40;99.90;;;-0.91;80.23;101476.50;4124706;28;20019;-72
2021/01/08 03:33:48;;;;;;;46.35;30.00;;;0.70;99.90;;;-0.95;80.51;101480.13;4104932;29;20039;-73
2021/01/08 03:35:49;;;;;;;58.83;33.33;;;-0.50;99.90;;;-1.01;81.02;101469.19;4122029;28;20042;-73
2021/01/08 03:37:50;;;;;;;58.88;32.17;;;-0.50;99.90;;;-0.92;81.39;101476.56;4114001;28;20027;-73
2021/01/08 03:39:51;;;;;;;54.40;33.00;;;-0.50;99.90;;;-1.01;81.39;101469.19;4117952;28;20034;-72
2021/01/08 03:41:52;;;;;;;52.33;31.27;;;-0.40;99.90;;;-0.79;80.45;101485.50;4133447;28;20035;-75
2021/01/08 03:43:53;;;;;;;50.65;31.45;;;-0.50;99.90;;;-0.93;80.71;101462.81;4121331;28;20049;-73
2021/01/08 03:45:54;;;;;;;52.00;32.63;;;-0.50;99.90;;;-1.04;81.40;101472.75;4121855;28;20031;-75
2021/01/08 03:47:55;;;;;;;53.42;33.50;;;-0.50;99.90;;;-1.06;81.94;101476.31;4120639;28;20093;-75
2021/01/08 03:49:56;;;;;;;61.35;35.13;;;-0.50;99.90;;;-1.04;81.91;101464.97;4121607;28;20039;-73
2021/01/08 03:51:57;;;;;;;54.25;33.65;;;-0.60;99.90;;;-1.01;81.74;101462.25;4125808;28;20034;-73
2021/01/08 03:53:58;;;;;;;54.83;34.53;;;-0.50;99.90;;;-1.05;81.90;101462.47;4121721;28;20023;-73
2021/01/08 03:55:59;;;;;;;66.03;35.75;;;-0.50;99.90;;;-0.98;82.58;101456.13;4120516;28;20019;-73
2021/01/08 03:58:00;;;;;;;57.33;32.80;;;-0.50;99.90;;;-0.91;81.65;101458.38;4104108;29;20392;-73
2021/01/08 04:00:03;;;;;;;64.60;35.53;;;-0.50;99.90;;;-1.07;82.54;101453.91;4120556;28;20529;-73
2021/01/08 04:02:04;;;;;;;62.65;37.38;;;-0.50;99.90;;;-0.90;82.20;101456.66;4121688;28;20090;-73
2021/01/08 04:04:05;;;;;;;57.72;34.70;;;-0.50;99.90;;;-0.87;81.41;101456.50;4121575;28;20030;-75
2021/01/08 04:06:06;;;;;;;54.58;33.40;;;-0.50;99.90;;;-1.04;81.65;101443.44;4121394;28;20034;-73
2021/01/08 04:08:07;;;;;;;65.22;36.55;;;-0.50;99.90;;;-0.93;81.43;101459.38;4120460;28;20038;-73
2021/01/08 04:10:08;;;;;;;63.22;36.95;;;-0.50;99.90;;;-0.92;80.14;101450.66;4104307;29;20044;-73
2021/01/08 04:12:09;;;;;;;60.05;34.85;;;-0.50;99.90;;;-0.94;80.03;101447.31;4120308;28;20790;-73
2021/01/08 04:14:10;;;;;;;57.60;34.22;;;-0.50;99.90;;;-0.99;79.73;101432.00;4121013;28;20027;-74
2021/01/08 04:16:11;;;;;;;59.58;34.55;;;-0.50;99.90;;;-0.90;80.21;101449.72;4104166;29;20155;-73
2021/01/08 04:18:12;;;;;;;53.55;31.88;;;-0.50;99.90;;;-0.96;80.15;101442.22;4121410;28;20031;-75
2021/01/08 04:20:14;;;;;;;58.03;34.03;;;-0.50;99.90;;;-0.94;80.29;101444.72;4121357;28;20077;-73
2021/01/08 04:22:14;;;;;;;53.95;31.83;;;-0.60;99.90;;;-1.07;80.35;101436.63;4121223;28;20061;-73
2021/01/08 04:24:15;;;;;;;50.90;30.55;;;-0.50;99.90;;;-1.24;80.70;101432.19;4120170;28;20031;-73
2021/01/08 04:26:16;;;;;;;54.88;32.97;;;-0.60;99.90;;;-1.12;80.25;101434.25;4088113;29;20115;-73
2021/01/08 04:28:17;;;;;;;56.42;31.38;;;-0.70;99.90;;;-1.02;79.16;101433.88;4120805;28;20034;-75
2021/01/08 04:30:18;;;;;;;53.55;32.08;;;-0.60;99.90;;;-1.14;79.31;101435.22;4130948;28;20441;-75
2021/01/08 04:32:19;;;;;;;57.38;33.15;;;-0.60;99.90;;;-1.17;80.08;101433.63;4121295;28;20081;-75
2021/01/08 04:34:20;;;;;;;55.92;35.22;;;-0.70;99.90;;;-1.06;79.54;101440.06;4120036;28;20109;-73
2021/01/08 04:36:21;;;;;;;53.83;32.75;;;-0.70;99.90;;;-1.19;79.88;101435.41;4121124;28;20027;-73
2021/01/08 04:38:22;;;;;;;53.33;31.48;;;-0.70;99.90;;;-1.19;80.51;101440.59;4108691;28;20030;-75
2021/01/08 04:40:22;;;;;;;56.95;33.97;;;-0.70;99.90;;;-1.08;79.34;101447.06;4121041;28;20042;-73
2021/01/08 04:42:23;;;;;;;56.63;33.72;;;-0.70;99.90;;;-1.16;79.59;101432.69;4121067;28;20122;-72
2021/01/08 04:44:24;;;;;;;56.15;33.35;;;-0.70;99.90;;;-1.14;79.33;101435.22;4103359;29;20047;-75
2021/01/08 04:46:37;;;;;;;53.25;31.08;;;-0.70;99.90;;;-1.11;78.85;101432.50;4119788;28;20030;-72
2021/01/08 04:48:38;;;;;;;54.50;31.83;;;-0.70;99.90;;;-1.19;78.57;101432.81;4114431;28;20054;-73
2021/01/08 04:50:40;;;;;;;53.00;32.65;;;-0.70;99.90;;;-1.26;79.28;101423.66;4114227;28;20027;-73
2021/01/08 04:52:41;;;;;;;52.78;32.25;;;-0.70;99.90;;;-1.17;79.37;101430.19;4118951;28;20037;-75
2021/01/08 04:54:42;;;;;;;46.80;29.65;;;-0.80;99.90;;;-1.16;78.85;101413.72;4119467;28;20019;-74
2021/01/08 04:56:48;;;;;;;51.47;30.67;;;-0.70;99.90;;;-1.28;80.06;101422.00;4103712;29;20035;-75
2021/01/08 04:58:51;;;;;;;49.05;30.92;;;-0.70;99.90;;;-1.40;80.96;101415.59;4103086;29;20081;-75
2021/01/08 05:00:53;;;;;;;50.38;31.27;;;-0.70;99.90;;;-1.39;80.98;101416.44;4119108;28;20031;-74
2021/01/08 05:02:55;;;;;;;50.78;31.67;;;-0.80;99.90;;;-1.31;80.71;101417.81;4119333;28;20042;-74
2021/01/08 05:04:56;;;;;;;52.63;30.23;;;-0.80;99.90;;;-1.29;80.50;101421.19;4119375;28;20031;-74
2021/01/08 05:06:58;;;;;;;52.78;30.90;;;-0.80;99.90;;;-1.34;81.21;101415.34;4103345;28;20095;-75
2021/01/08 05:08:59;;;;;;;51.67;30.98;;;-0.80;99.90;;;-1.35;81.11;101410.25;4120505;28;20031;-75
2021/01/08 05:11:30;;;;;;;49.22;29.85;;;-0.80;99.90;;;-1.36;81.42;101418.91;4107864;28;20560;-75
2021/01/08 05:13:34;;;;;;;52.53;29.55;;;-0.80;99.90;;;-1.28;80.95;101417.69;4102718;29;20031;-74
2021/01/08 05:15:35;;;;;;;49.58;29.05;;;-0.90;99.90;;;-1.26;80.47;101413.31;4119129;28;20039;-74
2021/01/08 05:17:36;;;;;;;49.70;29.98;;;-0.80;99.90;;;-1.29;80.31;101416.03;4103342;29;20042;-74
2021/01/08 05:19:37;;;;;;;43.85;29.23;;;-0.80;99.90;;;-1.38;80.58;101411.22;4119110;28;20042;-74
2021/01/08 05:21:39;;;;;;;51.65;30.95;;;-0.80;99.90;;;-1.17;79.45;101405.16;4087214;29;20118;-74
2021/01/08 05:23:40;;;;;;;47.03;30.60;;;-0.80;99.90;;;-1.12;79.35;101410.13;4115747;28;20027;-74
2021/01/08 05:25:49;;;;;;;57.35;30.67;;;-0.90;99.90;;;-1.24;78.55;101408.88;4102919;29;20035;-74
2021/01/08 05:27:50;;;;;;;52.40;30.98;;;-0.80;99.90;;;-1.17;78.91;101412.91;4102685;29;20055;-74
2021/01/08 05:29:52;;;;;;;48.88;31.02;;;-0.90;99.90;;;-1.26;78.74;101408.13;4117422;28;20035;-74
2021/01/08 05:31:55;;;;;;;48.53;29.52;;;-0.80;99.90;;;-1.20;78.85;101413.03;4103076;28;20031;-74
2021/01/08 05:33:57;;;;;;;51.08;30.67;;;-2.20;99.90;;;-1.31;79.54;101412.63;4090728;28;20074;-74
2021/01/08 05:35:58;;;;;;;49.85;30.25;;;-0.80;99.90;;;-1.42;79.66;101408.81;4102762;29;20031;-74
2021/01/08 05:38:05;;;;;;;49.13;30.15;;;-0.80;99.90;;;-1.28;79.00;101409.91;4110645;28;20035;-74
2021/01/08 05:40:08;;;;;;;46.55;29.65;;;-0.80;99.90;;;-1.24;79.33;101413.22;4117888;28;20034;-74
2021/01/08 05:42:11;;;;;;;53.53;30.55;;;-0.80;99.90;;;-1.27;79.57;101410.75;4119978;28;20031;-74
2021/01/08 05:44:15;;;;;;;51.33;30.23;;;-0.80;99.90;;;-1.33;79.75;101406.69;4118033;28;20105;-74
2021/01/08 05:46:18;;;;;;;43.78;28.55;;;-0.90;99.90;;;-1.25;79.21;101408.94;4119911;28;20038;-74
2021/01/08 05:48:20;;;;;;;49.97;29.52;;;-1.30;99.90;;;-1.36;79.33;101406.81;4118503;28;20105;-75
2021/01/08 05:50:23;;;;;;;47.30;28.98;;;-0.80;99.90;;;-1.30;79.11;101409.16;4102371;29;20031;-75
2021/01/08 05:52:25;;;;;;;45.63;30.17;;;-0.80;99.90;;;-1.33;79.16;101417.03;4118755;28;20019;-75
2021/01/08 05:54:27;;;;;;;46.17;27.95;;;-0.90;99.90;;;-1.30;78.14;101416.91;4118549;28;20700;-74
2021/01/08 05:56:37;;;;;;;51.58;29.30;;;-0.90;99.90;;;-1.44;79.50;101418.41;4118439;28;20085;-75
2021/01/08 05:58:38;;;;;;;46.63;27.85;;;-0.90;99.90;;;-1.31;77.95;101415.22;4102256;28;20034;-74
2021/01/08 06:00:39;;;;;;;48.30;30.00;;;-0.90;99.90;;;-1.08;76.72;101428.94;4119799;28;20491;-74
2021/01/08 06:02:40;;;;;;;47.92;28.77;;;-0.90;99.90;;;-1.18;76.63;101420.72;4119618;28;20031;-74
2021/01/08 06:04:41;;;;;;;47.70;32.38;;;-0.80;99.90;;;-1.40;77.27;101402.66;4117520;28;20031;-74
2021/01/08 06:06:44;;;;;;;49.95;30.38;;;-1.60;99.90;;;-1.35;77.19;101416.28;4102468;29;20042;-74
2021/01/08 06:08:54;;;;;;;47.53;31.20;;;-0.90;99.90;;;-1.41;76.78;101411.34;4102447;29;20031;-74
2021/01/08 06:10:57;;;;;;;52.20;29.13;;;-0.90;99.90;;;-1.69;77.95;101403.03;4118181;28;20029;-74
2021/01/08 06:13:02;;;;;;;46.47;28.45;;;-1.00;99.90;;;-1.74;78.93;101403.22;4118348;28;20082;-74
2021/01/08 06:15:11;;;;;;;48.05;28.58;;;-1.10;99.90;;;-1.71;79.56;101400.53;4102339;29;20531;-75
2021/01/08 06:17:18;;;;;;;45.80;28.95;;;-1.10;99.90;;;-1.55;79.31;101399.91;4118250;28;20081;-74
2021/01/08 06:19:19;;;;;;;51.78;29.35;;;-1.10;99.90;;;-1.51;79.31;101391.94;4118478;28;20066;-75
2021/01/08 06:21:34;;;;;;;44.58;28.55;;;-1.10;99.90;;;-1.62;79.47;101383.78;4118364;28;20023;-74
2021/01/08 06:23:45;;;;;;;48.78;29.17;;;-1.10;99.90;;;-1.54;79.90;101402.41;4104024;28;20063;-74
2021/01/08 06:25:47;;;;;;;52.83;29.98;;;-1.00;99.90;;;-1.40;79.31;101394.06;4117966;28;20050;-74
2021/01/08 06:27:57;;;;;;;49.03;29.70;;;-1.00;99.90;;;-1.34;79.06;101389.47;4118137;28;20035;-74
2021/01/08 06:30:06;;;;;;;50.50;29.75;;;-1.00;99.90;;;-1.45;79.23;101389.09;4116618;28;20039;-74
2021/01/08 06:32:16;;;;;;;50.28;29.13;;;-1.00;99.90;;;-1.52;79.71;101385.06;4117930;28;20035;-74
2021/01/08 06:34:29;;;;;;;48.45;29.77;;;-1.00;99.90;;;-1.54;80.32;101389.47;4118429;28;20069;-74
2021/01/08 06:36:33;;;;;;;52.70;30.90;;;-0.70;99.90;;;-1.06;79.77;101393.47;4118407;28;20030;-74
2021/01/08 06:38:41;;;;;;;46.50;27.17;;;-0.90;99.90;;;-1.10;80.02;101390.16;4106718;28;20055;-74
2021/01/08 06:40:48;;;;;;;54.00;32.65;;;-0.80;99.90;;;-0.99;79.85;101394.91;4118244;28;20034;-74
2021/01/08 06:42:54;;;;;;;56.90;32.80;;;-0.70;99.90;;;-1.07;80.08;101391.78;4118108;28;20556;-75
2021/01/08 06:44:55;;;;;;;54.75;31.98;;;-0.70;99.90;;;-1.20;80.91;101396.66;4118039;28;20567;-74
2021/01/08 06:47:03;;;;;;;48.50;29.45;;;-0.70;99.90;;;-1.33;80.73;101385.13;4118435;28;20475;-75
2021/01/08 06:49:11;;;;;;;52.92;31.30;;;-0.80;99.90;;;-1.41;80.89;101384.63;4119446;28;20058;-75
2021/01/08 06:51:29;;;;;;;50.38;31.30;;;-0.80;99.90;;;-1.38;80.35;101393.13;4118099;28;20037;-74
2021/01/08 06:53:32;;;;;;;52.05;29.25;;;-0.90;99.90;;;-1.33;79.59;101398.94;4107045;28;20027;-74
2021/01/08 06:55:38;;;;;;;54.17;32.03;;;-0.90;99.90;;;-1.34;79.65;101407.59;4119219;28;20019;-74
2021/01/08 06:57:54;;;;;;;49.80;29.27;;;-0.80;99.90;;;-1.38;78.79;101398.28;4117894;28;20089;-75
2021/01/08 07:00:05;;;;;;;49.67;29.80;;;-0.90;99.90;;;-1.40;78.68;101402.66;4106638;28;20122;-74
2021/01/08 07:02:19;;;;;;;46.95;28.98;;;-0.80;99.90;;;-1.44;78.96;101403.72;4118113;28;20050;-75
2021/01/08 07:04:25;;;;;;;51.88;29.77;;;-0.90;99.90;;;-1.22;77.81;101424.34;4101863;29;20454;-75
2021/01/08 07:06:27;;;;;;;51.25;30.30;;;-1.00;99.90;;;-1.11;76.45;101412.63;4118263;28;20398;-75
2021/01/08 07:08:29;;;;;;;48.15;28.60;;;-0.90;99.90;;;-1.24;77.03;101424.41;4119197;28;20031;-74
2021/01/08 07:10:31;;;;;;;45.80;28.75;;;-0.80;99.90;;;-1.37;76.10;101406.88;4118067;28;20027;-75
2021/01/08 07:12:33;;;;;;;45.97;28.38;;;-0.90;99.90;;;-1.19;75.23;101419.03;4117121;28;20021;-76
2021/01/08 07:14:38;;;;;;;55.00;31.58;;;-0.90;99.90;;;-1.26;75.29;101421.06;4117823;28;20091;-76
2021/01/08 07:16:55;;;;;;;48.45;29.45;;;-0.90;99.90;;;-1.46;75.77;101425.34;4103733;28;20534;-76
2021/01/08 07:19:05;;;;;;;49.08;28.25;;;-1.00;99.90;;;-1.57;76.43;101422.38;4120736;28;20098;-75
2021/01/08 07:21:06;;;;;;;47.58;29.17;;;-1.10;99.90;;;-1.84;77.44;101409.66;4127513;28;20426;-76
2021/01/08 07:23:09;;;;;;;47.63;28.13;;;-1.20;99.90;;;-1.89;77.50;101416.78;4104707;29;20063;-76
2021/01/08 07:25:14;;;;;;;50.15;29.15;;;-0.60;99.90;;;-1.79;77.60;101422.38;4088886;29;20027;-75
2021/01/08 07:27:14;;;;;;;;;;;-1.30;99.90;;;-1.72;76.60;101418.66;4105286;29;20118;-75
2021/01/08 07:29:24;;;;;;;49.88;27.73;;;-1.30;99.90;;;-1.75;76.58;101406.72;4123373;28;19957;-75
2021/01/08 07:31:33;;;;;;;47.22;29.10;;;-1.30;99.90;;;-1.83;76.71;101418.28;4111467;28;20023;-76
2021/01/08 07:33:34;;;;;;;48.70;29.42;;;-1.30;99.90;;;-1.92;77.60;101410.88;4120617;28;20032;-75
2021/01/08 07:35:35;;;;;;;50.70;29.75;;;-1.40;99.90;;;-1.78;76.88;101411.16;4120744;28;20077;-75
2021/01/08 07:37:59;;;;;;;49.38;28.85;;;-1.30;99.90;;;-1.79;77.13;101414.63;4098576;29;20059;-75
2021/01/08 07:40:04;;;;;;;49.65;28.83;;;-2.30;99.90;;;-1.96;77.75;101417.91;4117665;28;20592;-75
2021/01/08 07:42:34;;;;;;;49.83;29.77;;;-1.40;99.90;;;-1.99;78.30;101404.25;4104621;29;20522;-75
2021/01/08 07:44:34;;;;;;;45.45;29.23;;;-1.40;99.90;;;-1.98;78.10;101406.78;4120417;28;20082;-75
2021/01/08 07:46:35;;;;;;;49.53;29.08;;;-1.40;99.90;;;-1.98;78.14;101414.53;4121584;28;20039;-75
2021/01/08 07:48:40;;;;;;;51.88;30.17;;;-1.40;99.90;;;-1.82;77.58;101412.16;4120615;28;20078;-75
2021/01/08 07:51:07;;;;;;;43.70;27.63;;;-0.40;99.90;;;-1.88;77.56;101413.25;4104660;28;20051;-75
2021/01/08 07:53:08;;;;;;;45.30;28.02;;;-1.40;99.90;;;-1.91;77.94;101407.41;4121383;28;20105;-75
2021/01/08 07:55:11;;;;;;;50.10;30.27;;;-1.40;99.90;;;-1.95;77.78;101406.66;4104354;29;20038;-75
2021/01/08 07:57:13;;;;;;;45.50;28.50;;;-1.40;99.90;;;-1.86;78.00;101418.38;4104485;28;20031;-75
2021/01/08 07:59:14;;;;;;;44.90;28.73;;;-1.40;99.90;;;-1.85;78.14;101425.25;4121284;28;20049;-75
2021/01/08 08:01:17;;;;;;;46.28;28.40;;;-1.40;99.90;;;-1.77;77.09;101425.78;4121251;28;20031;-76
2021/01/08 08:03:20;;;;;;;44.53;27.95;;;-1.40;99.90;;;-1.88;77.11;101418.44;4104276;29;20031;-77
2021/01/08 08:05:23;;;;;;;42.90;27.88;;;-1.40;99.90;;;-1.64;75.08;101423.56;4121111;28;20041;-75
2021/01/08 08:07:24;;;;;;;46.90;28.80;;;-1.40;99.90;;;-1.66;74.85;101423.59;4120180;28;20031;-75
2021/01/08 08:09:25;;;;;;;48.08;30.35;;;-1.30;99.90;;;-1.61;74.71;101423.44;4103890;29;20027;-75
2021/01/08 08:11:34;;;;;;;46.65;28.33;;;-1.30;99.90;;;-1.72;75.07;101437.63;4103839;29;20027;-75
2021/01/08 08:13:36;;;;;;;40.72;26.70;;;-1.30;99.90;;;-1.84;76.03;101425.19;4120987;28;20022;-75
2021/01/08 08:15:47;;;;;;;45.67;29.63;;;-1.30;99.90;;;-1.95;76.76;101427.34;4103708;29;20039;-75
2021/01/08 08:17:49;;;;;;;50.30;31.48;;;-1.30;99.90;;;-1.89;76.35;101431.44;4088044;29;20024;-75
2021/01/08 08:19:49;;;;;;;56.22;36.80;;;-1.40;99.90;;;-1.79;76.00;101435.31;4103922;29;20031;-75
2021/01/08 08:21:51;;;;;;;60.40;38.15;;;-1.40;99.90;;;-1.83;76.46;101426.03;4121029;28;20034;-75
2021/01/08 08:24:03;;;;;;;57.47;35.15;;;-1.30;99.90;;;-2.01;78.09;101432.75;4119516;28;20750;-75
2021/01/08 08:26:05;;;;;;;57.35;35.08;;;-1.30;99.90;;;-1.95;78.32;101435.09;4103958;28;20472;-75